Time;durP1;ratioP1;P1;durP2;ratioP2;P2;SDS_P1;SDS_P2;PMS_P1;PMS_P2;Temp;Humidity;BMP_temperature;BMP_pressure;BME280_temperature;BME280_humidity;BME280_pressure;Samples;Min_cycle;Max_cycle;Signal;HPM_P1;HPM_P2
2023/04/10 00:01:10;;;;;;;50.15;21.92;;;4.10;99.90;;;;;;6179476;23;20020;-80
2023/04/10 00:03:37;;;;;;;51.45;21.83;;;4.00;99.90;;;;;;6203909;23;20024;-81
2023/04/10 00:06:06;;;;;;;47.15;20.35;;;4.10;99.90;;;;;;6203385;23;20362;-81
2023/04/10 00:08:33;;;;;;;48.92;21.42;;;4.00;99.90;;;;;;6178665;23;20027;-81
2023/04/10 00:11:00;;;;;;;50.47;21.02;;;4.10;99.90;;;;;;6202684;23;20020;-81
2023/04/10 00:13:27;;;;;;;52.05;21.25;;;4.00;99.90;;;;;;6204170;23;20111;-81
2023/04/10 00:15:54;;;;;;;54.15;21.08;;;4.00;99.90;;;;;;6205216;23;20608;-80
2023/04/10 00:18:21;;;;;;;55.40;22.38;;;4.00;99.90;;;;;;6178454;23;20024;-81
2023/04/10 00:20:48;;;;;;;53.50;22.58;;;3.90;99.90;;;;;;6179918;23;20027;-81
2023/04/10 00:23:15;;;;;;;53.45;22.20;;;3.90;99.90;;;;;;6178696;23;20470;-81
2023/04/10 00:25:42;;;;;;;57.55;23.35;;;3.90;99.90;;;;;;6205232;23;20024;-81
2023/04/10 00:28:10;;;;;;;50.85;22.15;;;3.90;99.90;;;;;;6204276;23;20367;-81
2023/04/10 00:30:37;;;;;;;47.63;21.45;;;3.90;99.90;;;;;;6182489;23;20419;-81
2023/04/10 00:33:04;;;;;;;52.22;21.42;;;3.90;99.90;;;;;;6178863;23;20082;-81
2023/04/10 00:35:32;;;;;;;52.90;22.08;;;3.80;99.90;;;;;;6179633;23;20028;-80
2023/04/10 00:37:59;;;;;;;53.35;22.20;;;3.80;99.90;;;;;;6204399;23;20419;-81
2023/04/10 00:40:29;;;;;;;55.78;22.08;;;3.80;99.90;;;;;;6179557;23;20024;-80
2023/04/10 00:42:56;;;;;;;43.60;20.67;;;3.80;99.90;;;;;;6186067;23;20024;-81
2023/04/10 00:45:23;;;;;;;52.42;21.67;;;3.70;99.90;;;;;;6198913;23;20487;-81
2023/04/10 00:47:51;;;;;;;50.47;22.27;;;3.70;99.90;;;;;;6181722;23;20442;-81
2023/04/10 00:50:19;;;;;;;54.42;21.38;;;3.70;99.90;;;;;;6180414;23;20486;-80
2023/04/10 00:52:47;;;;;;;54.15;21.80;;;3.60;99.90;;;;;;6179798;23;20070;-81
2023/04/10 00:55:15;;;;;;;49.58;20.33;;;3.60;99.90;;;;;;6204215;23;20024;-81
2023/04/10 00:57:46;;;;;;;51.83;20.52;;;3.60;99.90;;;;;;6179264;23;20024;-81
2023/04/10 01:00:16;;;;;;;50.55;20.85;;;3.60;99.90;;;;;;6176954;23;20123;-81
2023/04/10 01:02:43;;;;;;;55.20;21.25;;;3.60;99.90;;;;;;6180324;23;20070;-80
2023/04/10 01:05:12;;;;;;;62.85;25.05;;;3.50;99.90;;;;;;6203871;23;20058;-81
2023/04/10 01:08:03;;;;;;;58.33;23.17;;;3.50;99.90;;;;;;6180060;23;20475;-81
2023/04/10 01:10:51;;;;;;;59.38;21.88;;;3.50;99.90;;;;;;6184263;23;20023;-81
2023/04/10 01:13:30;;;;;;;55.97;22.15;;;3.50;99.90;;;;;;6179922;23;20024;-81
2023/04/10 01:16:01;;;;;;;60.88;22.33;;;3.50;99.90;;;;;;6181455;23;20444;-81
2023/04/10 01:18:45;;;;;;;54.50;22.02;;;3.50;99.90;;;;;;6185313;23;20419;-81
2023/04/10 01:21:14;;;;;;;51.30;21.77;;;3.50;99.90;;;;;;6211411;23;20091;-81
2023/04/10 01:24:12;;;;;;;49.63;19.33;;;3.40;99.90;;;;;;6178741;23;20039;-81
2023/04/10 01:26:58;;;;;;;47.25;19.67;;;3.40;99.90;;;;;;6183081;23;20447;-80
2023/04/10 01:29:28;;;;;;;48.42;18.67;;;3.40;99.90;;;;;;6189624;23;20024;-81
2023/04/10 01:32:01;;;;;;;51.88;20.02;;;3.40;99.90;;;;;;6207713;23;20028;-81
2023/04/10 01:34:46;;;;;;;51.20;19.98;;;3.40;99.90;;;;;;6180243;23;20020;-81
2023/04/10 01:37:20;;;;;;;49.10;19.15;;;3.30;99.90;;;;;;6201906;23;20443;-80
2023/04/10 01:40:08;;;;;;;39.95;18.05;;;3.30;99.90;;;;;;6177324;23;20024;-81
2023/04/10 01:42:59;;;;;;;49.70;18.90;;;3.30;99.90;;;;;;6174834;23;20030;-81
2023/04/10 01:45:40;;;;;;;52.25;19.20;;;3.30;99.90;;;;;;6179175;23;20140;-81
2023/04/10 01:48:08;;;;;;;49.17;19.10;;;3.30;99.90;;;;;;6177821;23;20032;-81
2023/04/10 01:50:36;;;;;;;55.50;21.13;;;3.20;99.90;;;;;;6179970;23;20448;-81
2023/04/10 01:53:05;;;;;;;54.28;19.65;;;3.20;99.90;;;;;;6179732;23;20020;-81
2023/04/10 01:55:35;;;;;;;48.67;18.52;;;3.20;99.90;;;;;;6180585;23;20044;-80
2023/04/10 01:58:05;;;;;;;47.70;18.85;;;3.20;99.90;;;;;;6179426;23;20590;-80
2023/04/10 02:00:42;;;;;;;48.78;20.05;;;3.20;99.90;;;;;;6175541;23;20024;-81
2023/04/10 02:03:10;;;;;;;47.63;18.88;;;3.10;99.90;;;;;;6174859;23;20032;-81
2023/04/10 02:06:01;;;;;;;45.38;18.60;;;3.10;99.90;;;;;;6175157;23;20427;-81
2023/04/10 02:08:39;;;;;;;44.28;16.63;;;3.10;99.90;;;;;;6207715;23;20110;-81
2023/04/10 02:11:32;;;;;;;46.08;18.15;;;3.10;99.90;;;;;;6177122;23;20031;-80
2023/04/10 02:14:02;;;;;;;;;;;3.00;99.90;;;;;;6175163;23;20028;-81
2023/04/10 02:16:32;;;;;;;44.97;16.98;;;3.10;99.90;;;;;;6199311;23;19943;-81
2023/04/10 02:19:01;;;;;;;46.10;18.80;;;3.00;99.90;;;;;;6177375;23;20083;-81
2023/04/10 02:21:28;;;;;;;49.53;18.40;;;3.00;99.90;;;;;;6177690;23;20028;-80
2023/04/10 02:23:57;;;;;;;45.03;17.42;;;3.00;99.90;;;;;;6174831;23;20358;-81
2023/04/10 02:26:24;;;;;;;47.53;17.63;;;3.00;99.90;;;;;;6174442;23;20021;-80
2023/04/10 02:28:51;;;;;;;43.13;17.25;;;3.00;99.90;;;;;;6179514;23;20035;-80
2023/04/10 02:31:18;;;;;;;49.55;17.85;;;3.00;99.90;;;;;;6176501;23;20024;-81
2023/04/10 02:33:47;;;;;;;42.92;17.48;;;3.00;99.90;;;;;;6176795;23;20139;-81
2023/04/10 02:36:14;;;;;;;48.30;17.73;;;3.00;99.90;;;;;;6178198;23;20135;-80
2023/04/10 02:38:41;;;;;;;46.75;18.38;;;3.00;99.90;;;;;;6177307;23;20095;-81
2023/04/10 02:41:10;;;;;;;42.90;17.65;;;2.90;99.90;;;;;;6174277;23;20029;-80
2023/04/10 02:43:37;;;;;;;41.72;17.55;;;2.90;99.90;;;;;;6177007;23;20020;-81
2023/04/10 02:46:05;;;;;;;47.17;17.63;;;2.90;99.90;;;;;;6173942;23;20035;-81
2023/04/10 02:48:37;;;;;;;45.85;17.73;;;2.90;99.90;;;;;;6175759;23;20024;-81
2023/04/10 02:51:05;;;;;;;40.38;17.75;;;2.90;99.90;;;;;;6176880;23;20024;-80
2023/04/10 02:53:33;;;;;;;47.85;17.83;;;2.90;99.90;;;;;;6175985;23;20492;-80
2023/04/10 02:56:01;;;;;;;45.20;18.30;;;2.90;99.90;;;;;;6180929;23;20444;-80
2023/04/10 02:58:29;;;;;;;42.65;16.70;;;2.80;99.90;;;;;;6176000;23;20020;-80
2023/04/10 03:00:57;;;;;;;47.05;17.05;;;2.80;99.90;;;;;;6175975;23;20480;-81
2023/04/10 03:03:38;;;;;;;45.72;17.08;;;2.80;99.90;;;;;;6180430;23;20028;-80
2023/04/10 03:06:06;;;;;;;44.05;18.52;;;2.80;99.90;;;;;;6199741;23;20032;-80
2023/04/10 03:08:35;;;;;;;49.67;18.83;;;2.80;99.90;;;;;;6175251;23;20036;-81
2023/04/10 03:11:02;;;;;;;46.35;17.17;;;2.80;99.90;;;;;;6174655;23;20092;-80
2023/04/10 03:13:30;;;;;;;41.72;16.75;;;2.70;99.90;;;;;;6172560;23;20363;-81
2023/04/10 03:15:57;;;;;;;49.88;18.23;;;2.70;99.90;;;;;;6173537;23;20024;-80
2023/04/10 03:18:24;;;;;;;48.20;18.40;;;2.70;99.90;;;;;;6202531;23;20031;-81
2023/04/10 03:20:54;;;;;;;44.42;17.83;;;2.70;99.90;;;;;;6177699;23;20024;-80
2023/04/10 03:23:21;;;;;;;51.38;17.50;;;2.80;99.90;;;;;;6179365;23;20416;-81
2023/04/10 03:25:52;;;;;;;43.92;17.33;;;2.70;99.90;;;;;;6173882;23;20028;-80
2023/04/10 03:28:22;;;;;;;48.20;17.85;;;2.70;99.90;;;;;;6172949;23;20032;-81
2023/04/10 03:30:50;;;;;;;39.97;16.15;;;2.60;99.90;;;;;;6172425;23;20016;-81
2023/04/10 03:33:19;;;;;;;45.53;17.35;;;2.60;99.90;;;;;;6173792;23;20028;-81
2023/04/10 03:35:46;;;;;;;42.58;15.27;;;3.00;99.90;;;;;;6176726;23;20079;-80
2023/04/10 03:38:14;;;;;;;41.15;16.90;;;2.60;99.90;;;;;;6173146;23;20094;-80
2023/04/10 03:40:41;;;;;;;40.30;15.48;;;2.60;99.90;;;;;;6173503;23;20034;-81
2023/04/10 03:43:09;;;;;;;40.35;15.02;;;2.60;99.90;;;;;;6174297;23;20024;-81
2023/04/10 03:45:37;;;;;;;39.05;14.13;;;2.60;99.90;;;;;;6173734;23;20052;-81
2023/04/10 03:48:05;;;;;;;38.10;15.02;;;2.60;99.90;;;;;;6171897;23;20035;-81
2023/04/10 03:50:40;;;;;;;34.65;14.30;;;2.60;99.90;;;;;;6174481;23;20419;-81
2023/04/10 03:53:07;;;;;;;38.70;14.07;;;2.60;99.90;;;;;;6172923;23;20103;-81
2023/04/10 03:55:35;;;;;;;37.45;14.27;;;2.60;99.90;;;;;;6178594;23;20481;-81
2023/04/10 03:58:04;;;;;;;33.15;13.68;;;2.60;99.90;;;;;;6179317;23;20086;-81
2023/04/10 04:00:32;;;;;;;31.80;13.43;;;2.70;99.90;;;;;;6174870;23;20082;-81
2023/04/10 04:03:08;;;;;;;35.53;14.07;;;2.60;99.90;;;;;;6152061;23;20798;-81
2023/04/10 04:05:54;;;;;;;35.85;14.48;;;2.70;99.90;;;;;;6198481;23;20484;-81
2023/04/10 04:08:35;;;;;;;36.05;13.38;;;2.80;99.90;;;;;;6203557;23;20020;-81
2023/04/10 04:11:20;;;;;;;37.63;13.65;;;2.70;99.90;;;;;;6197122;23;20035;-81
2023/04/10 04:14:07;;;;;;;34.53;12.35;;;2.70;99.90;;;;;;6175554;23;20020;-81
2023/04/10 04:17:03;;;;;;;32.70;12.65;;;2.70;99.90;;;;;;6117816;23;20133;-80
2023/04/10 04:19:50;;;;;;;37.08;13.60;;;2.70;99.90;;;;;;6115773;23;20056;-80
2023/04/10 04:22:41;;;;;;;33.85;13.15;;;2.70;99.90;;;;;;6199610;23;20256;-81
2023/04/10 04:25:26;;;;;;;33.33;12.45;;;2.70;99.90;;;;;;6200059;23;20043;-81
2023/04/10 04:28:19;;;;;;;30.63;12.77;;;2.70;99.90;;;;;;6165560;23;20461;-81
2023/04/10 04:31:00;;;;;;;29.02;11.95;;;2.70;99.90;;;;;;6176955;23;20098;-81
2023/04/10 04:33:46;;;;;;;30.45;11.70;;;2.70;99.90;;;;;;6199130;23;20036;-81
2023/04/10 04:36:28;;;;;;;31.55;11.77;;;2.70;99.90;;;;;;6176154;23;20024;-81
2023/04/10 04:39:14;;;;;;;30.95;12.20;;;2.70;99.90;;;;;;6198232;23;20039;-81
2023/04/10 04:41:53;;;;;;;34.08;13.00;;;2.70;99.90;;;;;;6176847;23;20032;-81
2023/04/10 04:44:39;;;;;;;34.70;13.23;;;2.70;99.90;;;;;;6203952;23;20035;-80
2023/04/10 04:47:09;;;;;;;29.95;11.73;;;2.80;99.90;;;;;;6199848;23;20115;-80
2023/04/10 04:50:05;;;;;;;32.45;13.50;;;2.80;99.90;;;;;;6119024;23;20354;-81
2023/04/10 04:52:53;;;;;;;34.42;12.82;;;2.80;99.90;;;;;;6203589;23;20032;-81
2023/04/10 04:55:32;;;;;;;38.33;14.88;;;2.90;99.90;;;;;;6181111;23;20905;-81
2023/04/10 04:58:17;;;;;;;37.67;15.40;;;2.90;99.90;;;;;;6178742;23;20549;-81
2023/04/10 05:00:47;;;;;;;39.25;15.50;;;3.00;99.90;;;;;;6199911;23;20595;-81
2023/04/10 05:03:31;;;;;;;35.80;13.48;;;3.10;99.90;;;;;;6178028;23;20024;-81
2023/04/10 05:06:19;;;;;;;34.97;14.23;;;3.10;99.90;;;;;;6198488;23;20127;-81
2023/04/10 05:09:04;;;;;;;43.38;17.60;;;3.30;99.90;;;;;;6201983;23;20078;-81
2023/04/10 05:11:59;;;;;;;39.13;15.88;;;3.40;99.90;;;;;;6183957;23;20024;-81
2023/04/10 05:14:52;;;;;;;43.08;15.63;;;3.50;99.90;;;;;;6179917;23;20025;-80
2023/04/10 05:17:29;;;;;;;49.65;17.35;;;3.60;99.90;;;;;;6180140;23;20086;-81
2023/04/10 05:20:12;;;;;;;48.35;17.35;;;3.70;99.90;;;;;;6181267;23;20051;-81
2023/04/10 05:22:53;;;;;;;53.15;18.98;;;3.90;99.90;;;;;;6175627;23;20447;-81
2023/04/10 05:25:53;;;;;;;51.42;16.58;;;3.90;99.90;;;;;;6154079;23;20349;-81
2023/04/10 05:28:50;;;;;;;49.55;18.60;;;4.00;99.90;;;;;;6131214;23;20054;-81
2023/04/10 05:31:45;;;;;;;49.83;19.17;;;4.10;99.90;;;;;;6179975;23;20031;-81
2023/04/10 05:34:17;;;;;;;50.28;18.00;;;4.20;99.90;;;;;;6176623;23;20356;-81
2023/04/10 05:37:02;;;;;;;64.03;21.17;;;4.20;99.90;;;;;;6200825;23;20067;-80
2023/04/10 05:39:41;;;;;;;53.72;19.40;;;4.40;99.90;;;;;;6176696;23;20083;-81
2023/04/10 05:42:30;;;;;;;43.78;15.18;;;4.50;99.90;;;;;;6181271;23;20044;-81
2023/04/10 05:45:13;;;;;;;41.75;15.90;;;4.60;99.90;;;;;;6178378;23;20028;-80
2023/04/10 05:48:02;;;;;;;35.22;13.88;;;4.70;99.90;;;;;;6200556;23;20025;-81
2023/04/10 05:50:55;;;;;;;30.20;11.98;;;4.80;99.90;;;;;;6194402;23;20171;-80
2023/04/10 05:53:56;;;;;;;31.02;12.30;;;4.80;99.90;;;;;;6182267;23;20020;-81
2023/04/10 05:56:42;;;;;;;29.08;11.48;;;4.90;99.90;;;;;;6201311;23;20035;-81
2023/04/10 05:59:30;;;;;;;30.90;11.70;;;5.00;99.90;;;;;;6189707;23;20433;-81
2023/04/10 06:02:27;;;;;;;27.23;11.65;;;5.20;99.90;;;;;;6189791;23;20102;-81
2023/04/10 06:04:54;;;;;;;29.27;11.80;;;5.40;99.90;;;;;;6178538;23;20024;-81
2023/04/10 06:07:21;;;;;;;28.17;11.65;;;5.50;99.90;;;;;;6178336;23;20526;-81
2023/04/10 06:09:49;;;;;;;27.25;11.85;;;5.70;99.90;;;;;;6176017;23;20455;-81
2023/04/10 06:12:17;;;;;;;28.58;11.48;;;5.80;99.90;;;;;;6178687;23;20021;-81
2023/04/10 06:14:44;;;;;;;27.27;11.70;;;6.00;99.90;;;;;;6181034;23;20519;-81
2023/04/10 06:17:11;;;;;;;28.92;12.30;;;6.60;99.90;;;;;;6177764;23;20028;-81
2023/04/10 06:19:40;;;;;;;27.30;12.02;;;6.40;99.90;;;;;;6176712;23;20039;-81
2023/04/10 06:22:07;;;;;;;24.80;10.88;;;6.60;99.90;;;;;;6180495;23;20082;-81
2023/04/10 06:24:34;;;;;;;23.38;11.25;;;6.80;99.90;;;;;;6176810;23;20020;-81
2023/04/10 06:27:01;;;;;;;21.40;9.95;;;6.90;99.90;;;;;;6177911;23;20028;-81
2023/04/10 06:29:29;;;;;;;19.45;8.60;;;7.00;99.90;;;;;;6177707;23;20347;-81
2023/04/10 06:31:56;;;;;;;21.48;9.95;;;6.20;99.90;;;;;;6175483;23;20025;-79
2023/04/10 06:34:23;;;;;;;18.80;8.45;;;7.30;99.90;;;;;;6178959;23;20092;-81
2023/04/10 06:36:58;;;;;;;18.02;7.47;;;7.40;99.90;;;;;;6182055;23;20308;-80
2023/04/10 06:39:26;;;;;;;18.73;8.93;;;7.50;99.90;;;;;;6181395;23;20043;-81
2023/04/10 06:41:53;;;;;;;22.58;11.75;;;7.70;99.90;;;;;;6180858;23;20421;-81
2023/04/10 06:44:32;;;;;;;22.33;11.05;;;7.90;99.90;;;;;;6183320;23;20539;-81
2023/04/10 06:46:59;;;;;;;18.58;7.82;;;8.10;99.90;;;;;;6184347;23;20082;-81
2023/04/10 06:49:27;;;;;;;19.85;8.70;;;8.10;99.90;;;;;;6180470;23;20117;-79
2023/04/10 06:51:54;;;;;;;17.35;7.80;;;8.20;99.90;;;;;;6203766;23;20048;-80
2023/04/10 06:54:21;;;;;;;17.48;7.95;;;8.40;99.80;;;;;;6204407;23;20412;-80
2023/04/10 06:56:49;;;;;;;18.98;8.90;;;8.50;98.10;;;;;;6205603;23;20020;-81
2023/04/10 06:59:16;;;;;;;18.25;8.65;;;8.50;98.80;;;;;;6207249;23;20025;-80
2023/04/10 07:01:43;;;;;;;23.70;11.30;;;8.70;98.30;;;;;;6178545;23;20035;-81
2023/04/10 07:04:10;;;;;;;19.35;8.00;;;8.90;97.80;;;;;;6177927;23;20032;-81
2023/04/10 07:06:37;;;;;;;20.67;10.18;;;9.00;96.50;;;;;;6176156;23;20626;-81
2023/04/10 07:09:05;;;;;;;16.80;8.15;;;9.00;96.10;;;;;;6176247;23;20024;-81
2023/04/10 07:11:32;;;;;;;17.20;8.70;;;9.20;96.30;;;;;;6174655;23;20456;-80
2023/04/10 07:13:59;;;;;;;15.82;7.85;;;9.40;95.90;;;;;;6200728;23;20031;-80
2023/04/10 07:16:28;;;;;;;14.73;7.47;;;9.40;94.10;;;;;;6178182;23;20028;-81
2023/04/10 07:18:55;;;;;;;16.65;7.25;;;9.50;93.80;;;;;;6179158;23;20051;-80
2023/04/10 07:21:23;;;;;;;19.02;8.23;;;9.60;93.40;;;;;;6179793;23;20026;-80
2023/04/10 07:23:50;;;;;;;18.90;8.80;;;9.80;94.20;;;;;;6177011;23;20030;-81
2023/04/10 07:26:18;;;;;;;16.13;7.47;;;9.90;92.90;;;;;;6203476;23;20024;-81
2023/04/10 07:28:45;;;;;;;13.27;6.88;;;10.10;92.30;;;;;;6175683;23;20028;-81
2023/04/10 07:31:12;;;;;;;16.98;8.07;;;10.20;91.40;;;;;;6208177;23;20135;-81
2023/04/10 07:33:40;;;;;;;16.58;7.55;;;10.30;91.70;;;;;;6202090;23;20111;-81
2023/04/10 07:36:07;;;;;;;15.45;7.55;;;10.40;90.20;;;;;;6170386;23;20613;-81
2023/04/10 07:38:35;;;;;;;15.95;7.50;;;10.40;90.30;;;;;;6194860;23;20025;-80
2023/04/10 07:41:03;;;;;;;18.13;9.15;;;10.50;91.00;;;;;;6172115;23;20031;-81
2023/04/10 07:43:30;;;;;;;15.25;7.50;;;10.70;90.60;;;;;;6170272;23;20031;-81
2023/04/10 07:45:57;;;;;;;15.25;8.32;;;10.70;89.40;;;;;;6169709;23;20076;-81
2023/04/10 07:48:25;;;;;;;16.00;8.30;;;11.00;90.30;;;;;;6175139;23;20036;-80
2023/04/10 07:50:52;;;;;;;16.67;7.00;;;11.00;88.50;;;;;;6200291;23;20183;-81
2023/04/10 07:53:19;;;;;;;16.10;8.02;;;11.10;86.60;;;;;;6176035;23;20021;-80
2023/04/10 07:55:48;;;;;;;13.32;6.82;;;11.10;86.30;;;;;;6198722;23;20087;-81
2023/04/10 07:58:15;;;;;;;16.38;7.40;;;11.20;84.30;;;;;;6172713;23;20323;-80
2023/04/10 08:00:43;;;;;;;15.07;7.18;;;11.40;85.50;;;;;;6195816;23;20017;-80
2023/04/10 08:03:11;;;;;;;17.70;7.80;;;11.60;84.10;;;;;;6195962;23;20024;-80
2023/04/10 08:05:39;;;;;;;13.93;6.88;;;11.70;83.60;;;;;;6176353;23;20034;-81
2023/04/10 08:08:07;;;;;;;15.40;7.43;;;11.80;82.40;;;;;;6197186;23;20055;-81
2023/04/10 08:10:38;;;;;;;14.82;7.07;;;11.90;83.00;;;;;;6169646;23;20296;-80
2023/04/10 08:13:05;;;;;;;15.23;7.18;;;12.00;82.30;;;;;;6169304;23;20025;-80
2023/04/10 08:15:32;;;;;;;12.23;6.60;;;12.20;83.50;;;;;;6172570;23;20043;-80
2023/04/10 08:18:00;;;;;;;13.20;6.78;;;12.20;79.20;;;;;;6194188;23;20043;-81
2023/04/10 08:20:28;;;;;;;12.88;6.40;;;12.20;77.40;;;;;;6170741;23;20070;-80
2023/04/10 08:22:55;;;;;;;12.07;6.35;;;12.30;78.80;;;;;;6194695;23;20512;-80
2023/04/10 08:25:38;;;;;;;10.70;5.75;;;12.40;77.80;;;;;;6195760;23;20428;-80
2023/04/10 08:28:05;;;;;;;11.45;6.53;;;12.50;78.20;;;;;;6170199;23;20056;-80
2023/04/10 08:30:32;;;;;;;9.68;4.93;;;12.30;78.40;;;;;;6168804;23;20035;-80
2023/04/10 08:36:29;;;;;;;9.38;4.85;;;12.80;74.50;;;;;;6229368;23;20118;-79
2023/04/10 08:40:00;;;;;;;10.25;5.68;;;12.80;73.80;;;;;;6121694;23;20092;-79
2023/04/10 08:42:30;;;;;;;9.60;5.15;;;13.10;73.10;;;;;;6073244;23;20022;-79
2023/04/10 08:45:27;;;;;;;12.95;6.15;;;12.80;72.20;;;;;;6115584;23;20018;-79
2023/04/10 08:49:07;;;;;;;11.75;5.80;;;13.00;73.90;;;;;;6239084;22;20046;-80
2023/04/10 08:54:47;;;;;;;8.65;4.93;;;13.20;71.90;;;;;;6234444;22;20007;-81
2023/04/10 08:57:19;;;;;;;11.23;5.60;;;13.30;70.60;;;;;;6273418;22;20023;-81
2023/04/10 08:59:50;;;;;;;10.50;6.18;;;13.20;71.10;;;;;;6266207;22;20015;-80
2023/04/10 09:02:24;;;;;;;11.00;5.68;;;13.20;71.30;;;;;;6267725;22;20019;-81
2023/04/10 09:04:57;;;;;;;10.77;5.65;;;13.40;71.70;;;;;;6243335;22;20019;-81
2023/04/10 09:07:48;;;;;;;11.30;5.28;;;14.30;71.00;;;;;;6175862;23;20021;-81
2023/04/10 09:10:20;;;;;;;8.80;5.13;;;13.50;70.20;;;;;;6176249;23;20005;-81
2023/04/10 09:12:59;;;;;;;10.90;5.25;;;13.60;68.90;;;;;;6141250;23;19999;-81
2023/04/10 09:15:29;;;;;;;11.48;6.55;;;13.60;69.70;;;;;;6056639;23;20539;-80
2023/04/10 09:18:04;;;;;;;11.27;6.43;;;13.80;70.00;;;;;;6110450;23;20089;-81
2023/04/10 09:20:32;;;;;;;11.63;5.50;;;13.80;69.00;;;;;;6194190;22;20031;-81
2023/04/10 09:23:44;;;;;;;12.05;6.28;;;14.00;69.90;;;;;;6237941;22;20031;-81
2023/04/10 09:26:32;;;;;;;13.75;5.70;;;14.30;69.60;;;;;;6215477;22;20043;-81
2023/04/10 09:29:04;;;;;;;12.00;6.93;;;14.40;67.70;;;;;;6238085;22;20027;-81
2023/04/10 09:31:43;;;;;;;11.73;6.78;;;14.50;66.80;;;;;;6235619;22;20086;-81
2023/04/10 09:34:18;;;;;;;11.68;6.68;;;14.80;68.80;;;;;;6217800;22;20126;-81
2023/04/10 09:37:39;;;;;;;8.50;5.33;;;14.60;67.00;;;;;;6139089;23;20034;-81
2023/04/10 09:40:41;;;;;;;9.45;5.53;;;14.60;65.80;;;;;;6284620;22;20316;-80
2023/04/10 09:43:27;;;;;;;8.88;5.07;;;14.80;66.10;;;;;;6235913;23;20020;-80
2023/04/10 09:46:25;;;;;;;8.82;5.07;;;14.50;65.60;;;;;;6197067;23;20066;-80
2023/04/10 09:48:55;;;;;;;6.47;4.25;;;14.40;65.40;;;;;;6232595;23;20024;-79
2023/04/10 09:51:34;;;;;;;8.45;3.80;;;14.60;64.80;;;;;;6225205;23;20423;-80
2023/04/10 09:54:04;;;;;;;6.28;3.78;;;14.40;63.40;;;;;;6217312;23;20024;-81
2023/04/10 09:56:37;;;;;;;7.90;4.65;;;14.20;63.70;;;;;;6224508;23;20021;-79
2023/04/10 09:59:06;;;;;;;7.72;4.45;;;14.10;64.50;;;;;;6221003;23;20026;-81
2023/04/10 10:01:38;;;;;;;8.35;5.20;;;14.30;64.80;;;;;;6169343;23;20028;-81
2023/04/10 10:04:08;;;;;;;7.63;4.60;;;14.70;64.80;;;;;;6136855;23;20048;-79
2023/04/10 10:06:39;;;;;;;7.70;4.47;;;15.00;65.20;;;;;;6132593;23;20001;-78
2023/04/10 10:09:09;;;;;;;10.07;4.93;;;15.10;65.80;;;;;;6142015;23;20052;-80
2023/04/10 10:11:37;;;;;;;8.00;5.70;;;15.30;64.00;;;;;;6141649;23;20109;-80
2023/04/10 10:14:15;;;;;;;8.98;5.07;;;15.30;64.00;;;;;;6134887;23;20031;-80
2023/04/10 10:16:50;;;;;;;9.27;4.75;;;15.00;63.40;;;;;;6161952;23;20449;-80
2023/04/10 10:19:41;;;;;;;8.50;5.10;;;14.70;64.20;;;;;;6144102;23;20029;-81
2023/04/10 10:22:10;;;;;;;8.43;5.28;;;14.40;64.60;;;;;;6146828;23;20113;-80
2023/04/10 10:24:44;;;;;;;9.38;5.72;;;14.20;66.40;;;;;;6156966;23;20025;-79
2023/04/10 10:27:12;;;;;;;9.10;4.95;;;14.00;66.30;;;;;;6185666;23;20104;-80
2023/04/10 10:29:41;;;;;;;8.25;5.15;;;13.90;67.00;;;;;;6128437;22;20012;31
2023/04/10 10:32:46;;;;;;;10.90;5.00;;;13.90;66.70;;;;;;6215624;22;20041;31
2023/04/10 10:35:14;;;;;;;10.57;5.80;;;13.90;66.90;;;;;;6105652;23;20118;-81
2023/04/10 10:37:44;;;;;;;9.00;5.60;;;13.80;67.10;;;;;;6110510;23;20233;-81
2023/04/10 10:40:23;;;;;;;8.93;5.20;;;13.70;67.70;;;;;;6086735;23;20406;-81
2023/04/10 10:43:12;;;;;;;11.63;7.53;;;13.70;67.80;;;;;;6095558;23;20053;-81
2023/04/10 10:45:47;;;;;;;12.32;6.07;;;13.70;67.70;;;;;;6105150;23;20025;-80
2023/04/10 10:48:14;;;;;;;9.00;5.38;;;13.70;68.60;;;;;;6102835;23;20025;-81
2023/04/10 10:50:56;;;;;;;7.95;4.85;;;13.80;67.10;;;;;;6101161;23;20080;-81
2023/04/10 10:53:40;;;;;;;8.02;5.10;;;13.90;67.70;;;;;;6127965;23;20022;-80
2023/04/10 10:56:25;;;;;;;8.38;4.57;;;14.10;67.90;;;;;;6133582;23;20024;-78
2023/04/10 10:59:10;;;;;;;7.88;4.28;;;14.10;66.20;;;;;;6146920;23;20030;-82
2023/04/10 11:02:17;;;;;;;8.10;4.50;;;14.20;66.80;;;;;;6120827;23;20093;-81
2023/04/10 11:04:46;;;;;;;8.90;4.78;;;14.00;65.20;;;;;;6092923;23;20243;-82
2023/04/10 11:07:15;;;;;;;8.32;4.88;;;14.10;66.50;;;;;;6094691;23;20774;-82
2023/04/10 11:09:51;;;;;;;7.15;4.18;;;14.10;66.50;;;;;;6094762;23;20488;-82
2023/04/10 11:12:23;;;;;;;7.80;3.72;;;14.10;66.50;;;;;;6096445;23;20018;-82
2023/04/10 11:15:05;;;;;;;7.68;4.45;;;14.10;65.40;;;;;;6095999;23;20026;-82
2023/04/10 11:17:52;;;;;;;7.82;4.03;;;14.20;66.80;;;;;;6073451;23;20022;-81
2023/04/10 11:20:24;;;;;;;8.13;5.20;;;14.10;66.50;;;;;;6100108;23;20030;-82
2023/04/10 11:23:10;;;;;;;10.02;5.57;;;14.00;66.30;;;;;;6096923;23;20734;-80
2023/04/10 11:25:56;;;;;;;8.48;5.20;;;13.90;67.20;;;;;;6092874;23;20061;-80
2023/04/10 11:28:35;;;;;;;9.00;5.40;;;13.70;66.40;;;;;;6095361;23;20029;-82
2023/04/10 11:31:18;;;;;;;8.50;4.95;;;13.50;66.90;;;;;;6094491;23;20030;-82
2023/04/10 11:34:06;;;;;;;8.05;5.40;;;13.50;68.00;;;;;;6127481;23;20048;-79
2023/04/10 11:36:37;;;;;;;9.00;4.90;;;13.50;67.50;;;;;;6130427;23;20045;-80
2023/04/10 11:39:07;;;;;;;8.52;5.07;;;13.50;68.50;;;;;;6132824;23;20040;-82
2023/04/10 11:41:37;;;;;;;8.35;5.10;;;13.40;67.90;;;;;;6132946;23;20356;-81
2023/04/10 11:44:09;;;;;;;;;;;13.40;67.90;;;;;;6130209;23;20025;-81
2023/04/10 11:46:38;;;;;;;7.07;4.30;;;13.50;68.60;;;;;;6157010;23;19920;-81
2023/04/10 11:49:08;;;;;;;7.07;3.90;;;13.50;68.10;;;;;;6134236;23;20017;-78
2023/04/10 11:51:37;;;;;;;8.52;4.47;;;13.60;67.30;;;;;;6133093;23;20713;-80
2023/04/10 11:54:09;;;;;;;8.38;4.30;;;13.60;67.90;;;;;;6155984;23;20025;-80
2023/04/10 11:56:38;;;;;;;6.97;3.67;;;13.50;67.40;;;;;;6148433;23;20021;-79
2023/04/10 11:59:18;;;;;;;6.57;4.10;;;13.50;67.70;;;;;;6117875;23;20025;-80
2023/04/10 12:01:46;;;;;;;9.13;5.50;;;13.60;68.60;;;;;;6124311;23;20024;-80
2023/04/10 12:04:17;;;;;;;8.02;4.53;;;13.80;67.30;;;;;;6120933;23;20029;-78
2023/04/10 12:06:52;;;;;;;8.57;4.68;;;13.70;67.50;;;;;;6121415;23;20024;-81
2023/04/10 12:09:20;;;;;;;9.35;4.95;;;13.70;68.70;;;;;;6123420;23;20025;-78
2023/04/10 12:11:53;;;;;;;9.00;5.85;;;13.50;69.50;;;;;;6143410;23;20032;-77
2023/04/10 12:14:21;;;;;;;6.88;4.50;;;13.20;70.70;;;;;;6127468;23;20021;-77
2023/04/10 12:16:50;;;;;;;10.43;5.05;;;13.10;70.80;;;;;;6133097;23;20460;-79
2023/04/10 12:19:18;;;;;;;9.18;4.88;;;13.20;71.30;;;;;;6115075;23;20424;-78
2023/04/10 12:21:45;;;;;;;7.82;4.85;;;13.20;70.90;;;;;;6115829;23;20025;-79
2023/04/10 12:24:32;;;;;;;8.32;5.22;;;13.20;70.70;;;;;;6117080;23;20089;-81
2023/04/10 12:27:01;;;;;;;6.47;3.88;;;13.30;71.60;;;;;;6116273;23;20108;-80
2023/04/10 12:29:29;;;;;;;8.35;5.32;;;14.60;72.60;;;;;;6163899;23;20784;-80
2023/04/10 12:31:56;;;;;;;7.55;4.53;;;13.40;72.30;;;;;;6113499;23;20029;-79
2023/04/10 12:34:24;;;;;;;6.40;4.15;;;13.30;72.10;;;;;;6119663;23;20021;-81
2023/04/10 12:36:52;;;;;;;7.35;4.10;;;13.30;72.20;;;;;;6119232;23;20017;-81
2023/04/10 12:39:24;;;;;;;7.00;3.58;;;13.40;72.80;;;;;;6116109;23;20464;-79
2023/04/10 12:41:51;;;;;;;7.75;4.20;;;13.40;73.00;;;;;;6116311;23;20325;-79
2023/04/10 12:44:19;;;;;;;7.05;4.13;;;13.60;72.30;;;;;;6116820;23;20052;-81
2023/04/10 12:46:46;;;;;;;5.50;3.42;;;13.60;72.10;;;;;;6113946;23;20027;-81
2023/04/10 12:49:15;;;;;;;7.80;4.10;;;13.60;73.00;;;;;;6116137;23;20032;-81
2023/04/10 12:51:46;;;;;;;7.97;4.30;;;13.60;72.50;;;;;;6116025;23;20076;-80
2023/04/10 12:54:33;;;;;;;7.80;4.72;;;13.50;72.20;;;;;;6115822;23;20032;-80
2023/04/10 12:57:02;;;;;;;7.63;4.60;;;13.60;72.70;;;;;;6123979;23;20049;-80
2023/04/10 12:59:30;;;;;;;8.10;4.72;;;13.50;72.40;;;;;;6132348;23;20045;-81
2023/04/10 13:01:57;;;;;;;9.48;5.28;;;13.60;72.90;;;;;;6122457;23;20021;-81
2023/04/10 13:04:24;;;;;;;10.05;4.32;;;13.70;73.10;;;;;;6119975;23;20032;-81
2023/04/10 13:06:52;;;;;;;7.25;4.90;;;13.70;73.10;;;;;;6120163;23;20504;-80
2023/04/10 13:09:19;;;;;;;5.10;3.42;;;13.70;73.20;;;;;;6145925;23;20032;-79
2023/04/10 13:11:47;;;;;;;6.15;3.65;;;14.30;72.70;;;;;;6118713;23;20024;-81
2023/04/10 13:14:17;;;;;;;8.63;5.35;;;14.70;71.70;;;;;;6118166;23;20063;-80
2023/04/10 13:16:44;;;;;;;7.35;5.05;;;14.60;71.80;;;;;;6120649;23;20451;-80
2023/04/10 13:19:12;;;;;;;7.13;4.65;;;14.10;72.30;;;;;;6123297;23;20392;-81
2023/04/10 13:21:39;;;;;;;7.20;3.80;;;13.80;73.30;;;;;;6121603;23;20017;-81
2023/04/10 13:24:07;;;;;;;6.22;4.30;;;13.50;73.40;;;;;;6118759;23;20222;-78